Leyendecker II PSRC

Feb. 28, 2020, noon

  • imperial
Air Temperature RH Dewpoint Wind Chill Heat Index Wind Speed Wind Direction Precipitation Solar Radiation Soil Temperature
Date Time Max Mean Mean Total Total
US/Mountain F % F F F MPH MPH MPH deg. deg. in. MJ/m^2 F
2020-02-27 12:00 55.94 13.69 6.87 55.94 55.94 6.89 6.89 3.22 15.0 26.4 0.0 0.264 45.23
2020-02-27 12:05 56.43 14.81 9.01 56.43 56.43 1.88 6.0 2.48 43.9 5.1 0.0 0.264 45.3
2020-02-27 12:10 57.65 14.33 9.25 57.65 57.65 5.28 5.82 3.8 242.7 341.8 0.0 0.264 45.39
2020-02-27 12:15 56.73 13.62 7.39 56.73 56.73 2.95 6.71 4.88 254.8 284.0 0.0 0.265 45.48
2020-02-27 12:20 56.05 13.32 6.35 56.05 56.05 1.34 7.07 3.13 223.1 279.8 0.0 0.265 45.55
2020-02-27 12:25 56.43 13.04 6.19 56.43 56.43 5.64 7.25 4.61 10.8 327.0 0.0 0.266 45.66
2020-02-27 12:30 57.34 12.84 6.58 57.34 57.34 3.49 4.38 2.53 14.4 21.7 0.0 0.265 45.73
2020-02-27 12:35 58.19 13.76 8.78 58.19 58.19 4.38 4.38 2.44 119.1 33.3 0.0 0.265 45.84
2020-02-27 12:40 57.34 15.86 11.28 57.34 57.34 4.74 6.71 4.16 38.9 99.8 0.0 0.265 45.91
2020-02-27 12:45 57.83 15.49 11.14 57.83 57.83 3.49 5.28 3.42 12.2 96.3 0.0 0.265 45.97
2020-02-27 12:50 58.26 12.91 7.42 58.26 58.26 9.04 9.57 5.23 326.6 342.1 0.0 0.264 46.09
2020-02-27 12:55 57.4 14.2 8.85 57.4 57.4 3.85 9.73 5.86 60.6 11.2 0.0 0.262 46.17
2020-02-27 13:00 57.15 14.71 9.43 57.15 57.15 2.77 8.3 4.7 42.5 19.2 0.0 0.261 46.26
2020-02-27 13:05 57.22 13.72 7.94 57.22 57.22 6.71 8.68 5.95 24.8 25.9 0.0 0.26 46.33
2020-02-27 13:10 57.27 14.3 8.9 57.27 57.27 8.12 9.91 6.49 1.8 6.0 0.0 0.259 46.44
2020-02-27 13:15 57.09 13.45 7.4 57.09 57.09 3.67 9.57 5.97 63.8 30.0 0.0 0.258 46.51
2020-02-27 13:20 57.4 15.63 11.0 57.4 57.4 5.1 5.82 3.83 95.2 108.0 0.0 0.256 46.6
2020-02-27 13:25 58.62 13.28 8.34 58.62 58.62 6.17 6.17 3.58 347.8 2.9 0.0 0.254 46.69
2020-02-27 13:30 59.47 12.64 7.91 59.47 59.47 3.85 7.78 4.21 3.7 331.2 0.0 0.252 46.76
2020-02-27 13:35 59.67 12.98 8.66 59.67 59.67 6.53 8.48 5.86 34.3 356.8 0.0 0.25 46.85
2020-02-27 13:40 58.8 14.33 10.18 58.8 58.8 6.53 8.12 5.46 44.4 53.8 0.0 0.248 46.94
2020-02-27 13:45 59.36 14.27 10.53 59.36 59.36 2.77 6.71 4.16 87.0 60.7 0.0 0.246 47.01
2020-02-27 13:50 59.23 12.94 8.25 59.23 59.23 3.85 9.04 5.59 25.1 4.8 0.0 0.243 47.1
2020-02-27 13:55 59.18 12.7 7.79 59.18 59.18 5.82 8.3 5.64 7.3 8.3 0.0 0.241 47.17
2020-02-27 14:00 59.23 13.72 9.55 59.23 59.23 3.67 6.89 4.92 68.0 14.0 0.0 0.238 47.25
2020-02-27 14:05 59.54 13.69 9.74 59.54 59.54 2.24 5.1 3.58 3.6 48.3 0.0 0.235 47.34
2020-02-27 14:10 60.03 13.38 9.62 60.03 60.03 3.67 6.89 3.51 73.4 50.7 0.0 0.232 47.39
2020-02-27 14:15 60.64 12.26 8.16 60.64 60.64 5.1 5.1 2.98 103.1 109.7 0.0 0.229 47.44
2020-02-27 14:20 60.58 12.5 8.55 60.58 60.58 4.21 5.64 3.83 266.1 80.0 0.0 0.225 47.55
2020-02-27 14:25 61.12 11.51 7.14 61.12 61.12 1.88 6.35 3.83 206.1 271.6 0.0 0.222 47.62
2020-02-27 14:30 60.64 13.38 10.11 60.64 60.64 4.03 4.38 3.11 189.4 125.7 0.0 0.217 47.7
2020-02-27 14:35 61.12 14.06 11.61 61.12 61.12 2.95 6.0 3.69 166.4 171.7 0.0 0.214 47.75
2020-02-27 14:40 61.92 12.47 9.54 61.92 61.92 2.42 5.82 3.49 76.8 124.8 0.0 0.21 47.8
2020-02-27 14:45 62.65 12.36 9.93 62.65 62.65 1.88 3.49 2.1 0.1 43.0 0.0 0.206 47.88
2020-02-27 14:50 62.73 12.13 9.56 62.73 62.73 1.16 4.56 2.44 344.8 270.8 0.0 0.202 47.95
2020-02-27 14:55 62.73 11.62 8.61 62.73 62.73 7.96 7.96 4.92 312.5 329.2 0.0 0.197 48.02
2020-02-27 15:00 62.04 11.75 8.32 62.04 62.04 2.59 7.43 4.03 323.6 303.4 0.0 0.192 48.09
2020-02-27 15:05 62.83 11.62 8.69 62.83 62.83 5.1 7.07 4.47 321.0 313.4 0.0 0.189 48.13
2020-02-27 15:10 63.14 11.55 8.79 63.14 63.14 6.53 6.53 3.0 305.5 322.1 0.0 0.184 48.2
2020-02-27 15:15 62.47 12.09 9.29 62.47 62.47 5.82 8.48 6.78 299.2 286.8 0.0 0.152 48.24
2020-02-27 15:20 62.53 11.14 7.52 62.53 62.53 4.92 7.96 5.37 261.7 287.3 0.0 0.177 48.31
2020-02-27 15:25 62.96 12.09 9.67 62.96 62.96 6.0 8.12 5.46 277.1 281.2 0.0 0.173 48.34
2020-02-27 15:30 63.01 11.55 8.7 63.01 63.01 8.68 8.68 5.32 11.7 317.2 0.0 0.166 48.38
2020-02-27 15:35 62.22 14.06 12.49 62.22 62.22 2.95 9.4 6.04 7.1 11.6 0.0 0.16 48.42
2020-02-27 15:40 62.91 12.81 10.93 62.91 62.91 5.46 9.22 6.33 308.2 328.0 0.0 0.137 48.45
2020-02-27 15:45 62.47 12.43 9.91 62.47 62.47 6.35 8.86 6.17 282.5 333.1 0.0 0.112 48.47
2020-02-27 15:50 62.73 12.13 9.56 62.73 62.73 4.03 6.71 4.79 310.8 313.5 0.0 0.128 48.51
2020-02-27 15:55 62.47 11.72 8.6 62.47 62.47 5.82 7.25 4.97 346.0 354.8 0.0 0.115 48.52
2020-02-27 16:00 62.22 12.09 9.09 62.22 62.22 3.13 7.78 4.74 348.1 344.7 0.0 0.1 48.56
2020-02-27 16:05 63.14 11.99 9.63 63.14 63.14 2.95 4.21 2.77 302.3 310.1 0.0 0.104 48.6
2020-02-27 16:10 63.39 11.72 9.32 63.39 63.39 3.85 3.85 2.77 284.2 257.8 0.0 0.101 48.6
2020-02-27 16:15 63.32 11.48 8.8 63.32 63.32 4.03 5.64 4.21 318.1 305.4 0.0 0.102 48.61
2020-02-27 16:20 63.57 11.14 8.33 63.57 63.57 4.92 4.92 3.22 246.0 274.9 0.0 0.109 48.65
2020-02-27 16:25 63.7 12.67 11.31 63.7 63.7 3.13 6.53 4.79 289.7 279.2 0.0 0.108 48.67
2020-02-27 16:30 63.93 11.07 8.47 63.93 63.93 2.24 4.74 3.4 261.6 289.1 0.0 0.095 48.67
2020-02-27 16:35 63.14 11.45 8.6 63.14 63.14 4.03 8.68 4.61 333.7 329.2 0.0 0.064 48.69
2020-02-27 16:40 62.35 11.92 8.88 62.35 62.35 7.43 9.73 5.86 350.7 313.9 0.0 0.04 48.7
2020-02-27 16:45 61.92 12.81 10.14 61.92 61.92 7.78 8.86 5.46 304.2 316.2 0.0 0.043 48.72
2020-02-27 16:50 61.92 13.01 10.49 61.92 61.92 5.28 7.25 5.12 314.3 307.4 0.0 0.045 48.72
2020-02-27 16:55 61.68 12.09 8.67 61.68 61.68 6.17 6.17 4.23 286.5 287.6 0.0 0.031 48.72
2020-02-27 17:00 61.56 12.81 9.86 61.56 61.56 3.49 5.82 3.83 277.9 289.1 0.0 0.036 48.76
2020-02-27 17:05 61.74 12.19 8.89 61.74 61.74 4.21 5.1 3.85 268.1 276.5 0.0 0.048 48.76
2020-02-27 17:10 62.11 11.89 8.64 62.11 62.11 4.21 5.46 4.16 254.5 274.9 0.0 0.056 48.74
2020-02-27 17:15 62.24 12.74 10.28 62.24 62.24 3.13 4.56 2.89 309.1 287.0 0.0 0.042 48.76
2020-02-27 17:20 61.86 12.67 9.86 61.86 61.86 3.13 6.0 3.8 296.4 282.9 0.0 0.033 48.76
2020-02-27 17:25 61.56 11.89 8.2 61.56 61.56 4.03 5.46 3.78 295.4 279.7 0.0 0.028 48.76
2020-02-27 17:30 61.32 12.67 9.43 61.32 61.32 2.95 3.49 2.68 276.3 275.0 0.0 0.019 48.76
2020-02-27 17:35 60.89 12.81 9.33 60.89 60.89 2.24 3.13 2.66 280.3 274.2 0.0 0.012 48.76
2020-02-27 17:40 60.4 13.08 9.41 60.4 60.4 0.98 2.59 1.59 271.2 269.9 0.0 0.008 48.76
2020-02-27 17:45 59.81 13.49 9.63 59.81 59.81 0.98 2.06 1.03 266.6 268.4 0.0 0.007 48.74
2020-02-27 17:50 58.95 15.05 11.4 58.95 58.95 0.0 0.98 0.56 258.3 264.5 0.0 0.004 48.74
2020-02-27 17:55 57.61 15.53 11.03 57.61 57.61 1.34 1.34 0.45 330.1 329.9 0.0 0.001 48.74
2020-02-27 18:00 56.64 16.34 11.38 56.64 56.64 2.24 2.24 1.54 303.7 315.6 0.0 0.0 48.74
2020-02-27 18:05 56.08 15.7 10.03 56.08 56.08 1.34 2.59 1.97 255.9 287.3 0.0 0.0 48.7
2020-02-27 18:10 55.47 15.7 9.54 55.47 55.47 0.81 1.52 0.98 237.3 257.8 0.0 0.0 48.69
2020-02-27 18:15 54.63 17.33 11.06 54.63 54.63 0.0 1.16 0.2 243.5 248.5 0.0 0.0 48.69
2020-02-27 18:20 53.58 18.66 11.87 53.58 53.58 1.34 1.34 0.29 181.9 186.7 0.0 0.0 48.65
2020-02-27 18:25 52.36 18.52 10.69 52.36 52.36 1.7 1.7 1.48 163.1 146.2 0.0 0.0 48.63
2020-02-27 18:30 52.18 19.57 11.78 52.18 52.18 2.24 2.42 2.06 171.4 168.0 0.0 0.0 48.61
2020-02-27 18:35 51.89 22.19 14.39 51.89 51.89 1.7 2.42 1.86 197.8 196.4 0.0 0.0 48.58
2020-02-27 18:40 50.85 20.56 11.78 50.85 50.85 0.0 1.52 0.56 271.4 202.9 0.0 0.0 48.58
2020-02-27 18:45 50.05 23.25 13.91 50.05 50.05 1.16 1.16 0.2 298.4 290.1 0.0 0.0 48.54
2020-02-27 18:50 49.14 23.08 12.96 47.83 49.14 4.03 4.03 2.44 292.5 297.8 0.0 0.0 48.52
2020-02-27 18:55 48.42 22.6 11.88 48.42 48.42 2.95 6.17 3.87 284.4 281.7 0.0 0.0 48.49
2020-02-27 19:00 48.22 22.81 11.92 47.35 48.22 3.31 4.21 2.66 327.5 311.1 0.0 0.0 48.45
2020-02-27 19:05 47.86 23.05 11.85 46.63 47.86 3.67 4.74 3.65 314.5 307.5 0.0 0.0 48.42
2020-02-27 19:10 48.11 22.06 11.07 46.51 48.11 4.21 4.56 3.89 312.7 311.9 0.0 0.0 48.4
2020-02-27 19:15 49.08 23.93 13.74 48.34 49.08 3.31 4.03 3.49 323.1 321.3 0.0 0.0 48.38
2020-02-27 19:20 49.21 22.2 12.14 49.21 49.21 2.42 3.13 2.77 327.0 315.4 0.0 0.0 48.34
2020-02-27 19:25 48.96 23.32 13.05 48.96 48.96 1.34 2.42 1.97 315.0 312.6 0.0 0.0 48.31
2020-02-27 19:30 48.16 22.33 11.39 48.16 48.16 2.06 2.06 0.47 111.3 311.3 0.0 0.0 48.27
2020-02-27 19:35 46.02 27.29 14.11 46.02 46.02 2.59 2.95 2.3 81.4 87.3 0.0 0.0 48.25
2020-02-27 19:40 45.36 29.84 15.58 45.36 45.36 1.52 3.13 1.97 14.9 63.8 0.0 0.0 48.22
2020-02-27 19:45 43.75 30.93 15.01 43.75 43.75 2.42 2.95 2.15 318.6 5.7 0.0 0.0 48.18
2020-02-27 19:50 44.74 28.52 14.01 44.74 44.74 2.06 2.95 2.46 296.4 302.3 0.0 0.0 48.15
2020-02-27 19:55 45.1 29.68 15.24 45.1 45.1 1.34 2.24 1.72 239.1 251.7 0.0 0.0 48.11
2020-02-27 20:00 44.08 27.88 12.92 41.83 44.08 4.21 4.21 1.43 146.0 155.2 0.0 0.0 48.07
2020-02-27 20:05 42.37 28.01 11.54 42.37 42.37 2.24 4.03 2.53 156.3 142.7 0.0 0.0 48.04
2020-02-27 20:10 43.65 28.66 13.17 43.65 43.65 2.77 2.95 2.24 162.3 183.0 0.0 0.0 48.0
2020-02-27 20:15 44.74 27.37 13.08 44.74 44.74 2.59 3.31 2.68 147.7 157.3 0.0 0.0 47.95
2020-02-27 20:20 44.33 28.42 13.58 44.33 44.33 1.52 3.13 2.13 154.6 156.1 0.0 0.0 47.93
2020-02-27 20:25 43.95 30.6 14.93 43.95 43.95 2.42 2.42 1.63 192.7 171.4 0.0 0.0 47.89
2020-02-27 20:30 43.54 31.21 15.02 43.54 43.54 0.81 2.24 1.74 146.0 178.5 0.0 0.0 47.84
2020-02-27 20:35 43.23 32.67 15.81 43.23 43.23 1.52 3.13 1.9 195.3 189.3 0.0 0.0 47.8
2020-02-27 20:40 43.59 31.99 15.64 43.59 43.59 1.52 1.88 1.5 191.8 197.2 0.0 0.0 47.79
2020-02-27 20:45 43.41 32.81 16.06 43.41 43.41 2.06 2.06 1.54 140.6 168.6 0.0 0.0 47.73
2020-02-27 20:50 41.76 32.54 14.41 41.76 41.76 0.0 2.59 1.86 72.3 82.8 0.0 0.0 47.71
2020-02-27 20:55 40.84 35.53 15.62 40.84 40.84 0.98 1.7 0.81 120.9 104.5 0.0 0.0 47.68
2020-02-27 21:00 40.91 33.12 14.07 40.91 40.91 1.34 1.52 1.21 149.6 155.6 0.0 0.0 47.62
2020-02-27 21:05 40.96 33.19 14.17 40.96 40.96 1.88 1.88 1.63 147.6 142.5 0.0 0.0 47.61
2020-02-27 21:10 41.04 35.77 15.95 41.04 41.04 1.16 2.06 1.63 188.2 168.2 0.0 0.0 47.57
2020-02-27 21:15 40.42 35.46 15.2 40.42 40.42 0.0 2.24 0.94 209.6 217.9 0.0 0.0 47.53
2020-02-27 21:20 39.74 39.48 17.07 39.74 39.74 2.24 2.24 0.29 251.5 240.8 0.0 0.0 47.5
2020-02-27 21:25 39.33 35.4 14.19 39.33 39.33 2.59 3.31 2.57 251.1 232.2 0.0 0.0 47.44
2020-02-27 21:30 40.3 34.78 14.65 40.3 40.3 2.06 3.67 2.71 259.9 242.9 0.0 0.0 47.41
2020-02-27 21:35 38.46 38.35 15.25 38.46 38.46 0.81 2.59 1.48 245.7 307.0 0.0 0.0 47.39
2020-02-27 21:40 37.36 40.12 15.29 37.36 37.36 0.0 0.98 0.18 319.4 359.9 0.0 0.0 47.37
2020-02-27 21:45 36.88 42.4 16.12 36.88 36.88 0.0 0.0 0.0 326.7 0.0 0.0 0.0 47.34
2020-02-27 21:50 36.81 41.76 15.71 36.81 36.81 2.59 2.77 1.3 51.6 55.9 0.0 0.0 47.3
2020-02-27 21:55 37.36 42.71 16.73 37.36 37.36 1.7 3.85 3.09 13.0 40.3 0.0 0.0 47.25
2020-02-27 22:00 36.7 43.73 16.67 36.7 36.7 1.16 2.24 1.61 84.8 52.9 0.0 0.0 47.23
2020-02-27 22:05 37.0 37.98 13.72 37.0 37.0 2.77 3.31 2.37 122.3 114.3 0.0 0.0 47.19
2020-02-27 22:10 37.36 39.65 15.02 34.78 37.36 3.49 5.1 3.71 144.4 136.9 0.0 0.0 47.16
2020-02-27 22:15 37.36 41.49 16.07 37.36 37.36 0.0 3.31 1.28 148.9 133.0 0.0 0.0 47.12
2020-02-27 22:20 37.36 42.61 16.68 37.36 37.36 0.0 0.0 0.0 149.1 0.0 0.0 0.0 47.08
2020-02-27 22:25 37.49 43.87 17.47 37.49 37.49 2.24 2.24 1.54 38.5 9.1 0.0 0.0 47.05
2020-02-27 22:30 37.69 43.12 17.25 37.69 37.69 2.06 2.24 1.66 123.7 114.9 0.0 0.0 47.01
2020-02-27 22:35 37.99 42.14 17.0 35.5 37.99 3.49 3.49 2.71 156.2 147.4 0.0 0.0 46.98
2020-02-27 22:40 38.23 42.85 17.6 35.58 38.23 3.67 4.74 4.18 165.5 162.7 0.0 0.0 46.98
2020-02-27 22:45 38.35 43.09 17.84 38.35 38.35 2.24 4.56 3.49 205.1 175.4 0.0 0.0 46.92
2020-02-27 22:50 37.74 46.18 18.89 37.74 37.74 2.59 2.95 2.26 187.8 186.4 0.0 0.0 46.9
2020-02-27 22:55 37.87 44.72 18.26 35.36 37.87 3.49 4.38 3.22 130.5 161.9 0.0 0.0 46.87
2020-02-27 23:00 37.26 42.78 16.67 37.26 37.26 2.95 3.85 2.77 148.1 127.7 0.0 0.0 46.85
2020-02-27 23:05 38.05 42.07 17.01 38.05 38.05 0.98 3.49 2.59 166.6 162.8 0.0 0.0 46.81
2020-02-27 23:10 37.51 41.9 16.42 37.51 37.51 0.98 1.7 0.72 90.4 128.8 0.0 0.0 46.78
2020-02-27 23:15 36.7 42.95 16.26 36.7 36.7 0.0 1.88 0.76 46.9 24.4 0.0 0.0 46.74
2020-02-27 23:20 36.28 44.52 16.71 36.28 36.28 1.52 2.06 0.87 76.5 95.1 0.0 0.0 46.72
2020-02-27 23:25 35.55 49.11 18.31 35.55 35.55 2.77 3.31 2.28 9.7 29.1 0.0 0.0 46.67
2020-02-27 23:30 34.57 49.86 17.76 34.57 34.57 1.52 2.95 2.48 14.4 1.1 0.0 0.0 46.65
2020-02-27 23:35 34.45 49.76 17.6 34.45 34.45 0.0 1.7 0.54 305.3 21.5 0.0 0.0 46.63
2020-02-27 23:40 34.88 47.99 17.16 34.88 34.88 1.7 1.7 1.25 267.3 287.2 0.0 0.0 46.58
2020-02-27 23:45 34.81 52.58 19.22 34.81 34.81 2.95 3.13 2.44 248.5 250.9 0.0 0.0 46.56
2020-02-27 23:50 34.2 50.34 17.64 34.2 34.2 2.42 3.13 2.62 266.7 249.8 0.0 0.0 46.53
2020-02-27 23:55 33.71 51.02 17.5 33.71 33.71 2.42 2.95 2.55 294.7 277.3 0.0 0.0 46.49
2020-02-28 00:00 32.56 51.56 16.67 32.56 32.56 1.88 2.77 2.28 281.6 299.6 0.0 0.0 46.47
2020-02-28 00:05 32.36 54.83 17.91 32.36 32.36 2.06 2.24 2.1 231.4 254.6 0.0 0.0 46.45
2020-02-28 00:10 32.67 55.65 18.54 32.67 32.67 1.34 2.24 1.95 267.4 244.9 0.0 0.0 46.44
2020-02-28 00:15 32.13 52.45 16.67 32.13 32.13 1.88 1.88 1.59 323.1 300.1 0.0 0.0 46.38
2020-02-28 00:20 31.14 55.24 16.94 31.14 31.14 1.52 2.77 2.15 314.4 305.0 0.0 0.0 46.36
2020-02-28 00:25 30.78 55.92 16.89 30.78 30.78 2.24 2.24 1.7 321.1 318.2 0.0 0.0 46.33
2020-02-28 00:30 30.72 55.71 16.75 30.72 30.72 2.06 2.59 1.41 271.0 297.2 0.0 0.0 46.29
2020-02-28 00:35 30.78 53.95 16.06 30.78 30.78 1.52 2.06 1.63 274.5 268.2 0.0 0.0 46.27
2020-02-28 00:40 30.83 54.05 16.15 30.83 30.83 1.16 1.7 1.41 308.4 294.5 0.0 0.0 46.24
2020-02-28 00:45 30.78 56.5 17.13 30.78 30.78 1.88 1.88 1.63 336.2 298.1 0.0 0.0 46.22
2020-02-28 00:50 30.78 59.49 18.32 30.78 30.78 1.7 2.42 2.01 310.6 314.6 0.0 0.0 46.18
2020-02-28 00:55 30.54 60.14 18.36 30.54 30.54 2.06 2.06 1.66 217.7 272.9 0.0 0.0 46.15
2020-02-28 01:00 30.78 56.2 17.0 30.78 30.78 0.0 3.13 1.66 234.4 205.1 0.0 0.0 46.11
2020-02-28 01:05 30.42 55.17 16.24 30.42 30.42 2.77 3.13 1.66 337.2 3.4 0.0 0.0 46.08
2020-02-28 01:10 29.44 55.31 15.39 29.44 29.44 1.34 3.13 2.55 336.0 328.0 0.0 0.0 46.04
2020-02-28 01:15 29.68 54.94 15.45 29.68 29.68 0.0 2.06 0.94 349.0 339.6 0.0 0.0 46.04
2020-02-28 01:20 29.62 54.84 15.36 29.62 29.62 1.34 1.52 0.6 297.2 306.9 0.0 0.0 46.02
2020-02-28 01:25 30.06 59.53 17.66 30.06 30.06 1.88 2.42 1.9 258.6 267.6 0.0 0.0 45.99
2020-02-28 01:30 30.29 56.0 16.46 30.29 30.29 0.81 1.7 0.96 326.8 282.7 0.0 0.0 45.95
2020-02-28 01:35 30.29 57.97 17.26 30.29 30.29 2.42 2.42 0.98 312.9 311.2 0.0 0.0 45.91
2020-02-28 01:40 29.93 58.38 17.09 29.93 29.93 2.06 2.59 1.99 281.9 304.2 0.0 0.0 45.9
2020-02-28 01:45 30.18 57.8 17.09 30.18 30.18 1.34 2.42 1.54 285.5 295.6 0.0 0.0 45.86
2020-02-28 01:50 30.06 58.51 17.26 30.06 30.06 1.88 1.88 1.43 255.7 264.9 0.0 0.0 45.84
2020-02-28 01:55 30.29 57.46 17.06 30.29 30.29 2.06 2.06 1.88 274.2 268.5 0.0 0.0 45.81
2020-02-28 02:00 30.18 58.24 17.27 30.18 30.18 1.34 2.24 1.9 0.1 284.0 0.0 0.0 45.77
2020-02-28 02:05 28.15 59.4 15.81 28.15 28.15 2.06 3.31 2.59 339.4 339.5 0.0 0.0 45.73
2020-02-28 02:10 27.43 62.53 16.31 27.43 27.43 0.0 3.31 1.81 308.2 317.8 0.0 0.0 45.7
2020-02-28 02:15 27.43 62.7 16.37 27.43 27.43 0.0 2.24 0.94 305.7 318.9 0.0 0.0 45.68
2020-02-28 02:20 27.79 62.09 16.49 27.79 27.79 2.59 2.59 1.25 335.9 335.4 0.0 0.0 45.64
2020-02-28 02:25 28.35 58.11 15.49 28.35 28.35 2.06 2.95 2.77 312.7 328.0 0.0 0.0 45.63
2020-02-28 02:30 28.53 60.69 16.66 28.53 28.53 2.77 2.95 2.59 316.9 313.4 0.0 0.0 45.59
2020-02-28 02:35 28.4 61.44 16.82 28.4 28.4 2.77 3.13 2.82 321.9 312.8 0.0 0.0 45.55
2020-02-28 02:40 28.04 62.46 16.86 28.04 28.04 2.06 3.13 2.06 296.5 310.7 0.0 0.0 45.52
2020-02-28 02:45 28.09 60.52 16.19 28.09 28.09 1.34 2.06 1.79 271.6 274.3 0.0 0.0 45.5
2020-02-28 02:50 28.35 63.14 17.41 28.35 28.35 0.81 1.34 1.1 186.4 239.5 0.0 0.0 45.48
2020-02-28 02:55 28.65 62.49 17.46 28.65 28.65 1.52 2.06 1.63 211.0 184.5 0.0 0.0 45.45
2020-02-28 03:00 28.45 62.26 17.18 28.45 28.45 2.24 2.95 1.99 254.7 238.9 0.0 0.0 45.43
2020-02-28 03:05 28.45 60.9 16.67 28.45 28.45 1.7 2.42 1.95 259.8 273.3 0.0 0.0 45.39
2020-02-28 03:10 28.27 61.58 16.76 28.27 28.27 2.06 2.24 1.54 277.3 264.6 0.0 0.0 45.36
2020-02-28 03:15 28.22 58.65 15.58 28.22 28.22 2.59 2.77 2.48 300.0 289.0 0.0 0.0 45.36
2020-02-28 03:20 27.79 60.15 15.76 23.82 27.79 3.49 3.49 3.02 316.1 308.5 0.0 0.0 45.3
2020-02-28 03:25 26.74 58.0 13.94 22.63 26.74 3.49 4.21 3.6 312.7 318.9 0.0 0.0 45.28
2020-02-28 03:30 26.82 62.29 15.64 26.82 26.82 2.59 3.85 3.09 286.5 303.8 0.0 0.0 45.27
2020-02-28 03:35 27.36 58.99 14.9 27.36 27.36 0.0 2.59 1.54 213.8 243.2 0.0 0.0 45.23
2020-02-28 03:40 27.48 59.47 15.21 27.48 27.48 0.0 0.98 0.16 249.3 202.2 0.0 0.0 45.21
2020-02-28 03:45 27.36 60.35 15.42 27.36 27.36 0.0 0.0 0.0 302.6 0.0 0.0 0.0 45.18
2020-02-28 03:50 27.23 59.3 14.9 23.69 27.23 3.13 3.13 2.08 325.1 347.0 0.0 0.0 45.16
2020-02-28 03:55 26.69 66.14 16.9 26.69 26.69 2.59 3.13 2.46 295.3 309.9 0.0 0.0 45.12
2020-02-28 04:00 27.05 63.07 16.15 27.05 27.05 2.59 2.95 2.48 306.1 294.6 0.0 0.0 45.09
2020-02-28 04:05 26.51 64.23 16.06 26.51 26.51 2.95 2.95 2.42 316.3 317.8 0.0 0.0 45.07
2020-02-28 04:10 26.69 60.39 14.81 22.82 26.69 3.31 3.31 3.13 314.0 318.6 0.0 0.0 45.05
2020-02-28 04:15 26.69 63.42 15.93 22.57 26.69 3.49 4.03 3.67 318.3 315.4 0.0 0.0 45.01
2020-02-28 04:20 27.05 59.1 14.66 21.68 27.05 4.56 4.56 3.74 320.1 318.7 0.0 0.0 45.0
2020-02-28 04:25 27.48 57.12 14.28 23.47 27.48 3.49 4.21 3.67 302.1 308.5 0.0 0.0 44.98
2020-02-28 04:30 28.35 56.54 14.86 24.7 28.35 3.31 4.21 3.62 292.9 300.7 0.0 0.0 44.94
2020-02-28 04:35 29.21 54.57 14.86 25.45 29.21 3.49 4.03 3.36 288.5 295.7 0.0 0.0 44.92
2020-02-28 04:40 29.32 54.94 15.11 29.32 29.32 2.77 4.03 3.36 298.1 299.2 0.0 0.0 44.91
2020-02-28 04:45 29.75 55.15 15.61 29.75 29.75 2.95 4.03 2.89 288.4 286.4 0.0 0.0 44.89
2020-02-28 04:50 30.24 54.88 15.95 26.86 30.24 3.31 3.85 3.18 301.5 290.7 0.0 0.0 44.85
2020-02-28 04:55 30.67 52.6 15.37 26.68 30.67 3.85 4.56 3.56 312.6 301.4 0.0 0.0 44.85
2020-02-28 05:00 30.54 52.59 15.25 30.54 30.54 2.95 4.21 3.47 300.2 307.3 0.0 0.0 44.82
2020-02-28 05:05 30.49 54.13 15.87 30.49 30.49 2.42 3.13 2.59 301.4 289.8 0.0 0.0 44.78
2020-02-28 05:10 30.79 51.17 14.86 27.49 30.79 3.31 3.67 3.0 315.1 314.5 0.0 0.0 44.78
2020-02-28 05:15 30.36 52.73 15.15 30.36 30.36 2.42 3.85 3.11 296.1 317.9 0.0 0.0 44.74
2020-02-28 05:20 29.93 54.43 15.47 29.93 29.93 1.88 2.59 1.88 298.9 298.6 0.0 0.0 44.74
2020-02-28 05:25 30.6 53.41 15.66 30.6 30.6 2.42 3.67 2.51 271.7 288.8 0.0 0.0 44.71
2020-02-28 05:30 31.15 52.93 15.97 27.9 31.15 3.31 3.31 2.59 252.2 267.5 0.0 0.0 44.71
2020-02-28 05:35 31.64 51.85 15.95 31.64 31.64 2.95 4.03 3.2 295.2 282.4 0.0 0.0 44.67
2020-02-28 05:40 31.71 52.49 16.3 28.54 31.71 3.31 5.1 3.56 299.7 305.1 0.0 0.0 44.67
2020-02-28 05:45 31.41 52.19 15.88 27.74 31.41 3.67 5.28 3.62 313.5 306.1 0.0 0.0 44.64
2020-02-28 05:50 31.23 53.0 16.07 27.99 31.23 3.31 4.21 3.4 283.3 299.4 0.0 0.0 44.64
2020-02-28 05:55 31.71 52.93 16.49 27.3 31.71 4.38 5.1 4.09 259.4 269.8 0.0 0.0 44.6
2020-02-28 06:00 32.32 51.98 16.64 27.5 32.32 4.92 6.0 4.97 294.4 275.3 0.0 0.0 44.6
2020-02-28 06:05 32.43 51.71 16.62 28.33 32.43 4.21 5.28 4.16 295.2 285.1 0.0 0.0 44.56
2020-02-28 06:10 32.2 50.35 15.79 27.03 32.2 5.28 5.82 4.34 287.7 295.0 0.0 0.0 44.56
2020-02-28 06:15 32.0 51.91 16.31 27.82 32.0 4.21 6.0 4.7 283.8 301.1 0.0 0.0 44.55
2020-02-28 06:20 32.43 52.08 16.79 29.14 32.43 3.49 5.46 4.41 285.1 281.8 0.0 0.0 44.53
2020-02-28 06:25 33.1 49.12 16.05 28.57 33.1 4.74 6.0 4.43 295.3 299.4 0.0 0.0 44.49
2020-02-28 06:30 32.36 48.98 15.31 28.24 32.36 4.21 4.74 4.21 325.8 316.7 0.0 0.0 44.49
2020-02-28 06:35 30.9 54.01 16.2 26.75 30.9 4.03 4.56 4.07 306.7 313.3 0.0 0.0 44.46
2020-02-28 06:40 30.78 54.05 16.1 30.78 30.78 2.24 4.56 2.84 314.0 299.2 0.0 0.001 44.44
2020-02-28 06:45 30.9 55.2 16.7 30.9 30.9 2.24 2.77 2.04 304.0 299.2 0.0 0.003 44.42
2020-02-28 06:50 31.64 54.9 17.27 31.64 31.64 2.59 3.13 2.46 270.0 291.3 0.0 0.006 44.4
2020-02-28 06:55 32.05 53.47 17.04 28.7 32.05 3.49 3.49 2.3 261.9 281.7 0.0 0.008 44.4
2020-02-28 07:00 33.22 49.56 16.38 30.26 33.22 3.31 3.85 3.27 260.3 261.7 0.0 0.009 44.38
2020-02-28 07:05 33.71 49.56 16.82 29.45 33.71 4.56 4.74 3.4 272.9 255.3 0.0 0.012 44.37
2020-02-28 07:10 34.45 46.73 16.15 29.83 34.45 5.1 6.0 4.54 265.6 268.1 0.0 0.015 44.35
2020-02-28 07:15 34.93 46.77 16.61 31.05 34.93 4.38 5.1 4.25 266.6 274.6 0.0 0.015 44.33
2020-02-28 07:20 35.49 46.19 16.84 32.44 35.49 3.67 6.0 4.47 268.3 270.4 0.0 0.018 44.33
2020-02-28 07:25 36.1 44.93 16.76 36.1 36.1 2.95 5.1 3.98 286.4 278.8 0.0 0.022 44.31
2020-02-28 07:30 37.02 42.38 16.24 32.31 37.02 5.82 6.17 3.71 308.5 291.9 0.0 0.037 44.31
2020-02-28 07:35 37.89 43.23 17.49 34.33 37.89 4.56 5.46 4.7 294.9 304.5 0.0 0.048 44.29
2020-02-28 07:40 38.17 43.5 17.9 33.94 38.17 5.46 6.89 5.37 297.3 305.0 0.0 0.049 44.29
2020-02-28 07:45 38.3 44.21 18.39 34.97 38.3 4.38 6.35 4.99 287.2 300.4 0.0 0.055 44.29
2020-02-28 07:50 38.84 42.54 17.98 35.0 38.84 5.1 5.28 3.85 316.4 309.3 0.0 0.052 44.28
2020-02-28 07:55 39.81 43.94 19.62 37.22 39.81 3.85 5.64 4.54 330.8 323.3 0.0 0.073 44.24
2020-02-28 08:00 40.55 40.06 18.13 37.74 40.55 4.21 6.17 4.81 311.4 305.0 0.0 0.081 44.26
2020-02-28 08:05 41.52 38.7 18.2 38.43 41.52 4.74 5.28 4.12 303.4 312.8 0.0 0.074 44.26
2020-02-28 08:10 42.19 37.54 18.09 39.8 42.19 4.03 5.1 4.36 287.2 306.0 0.0 0.083 44.24
2020-02-28 08:15 42.93 36.99 18.41 39.45 42.93 5.64 6.35 4.65 321.5 313.6 0.0 0.079 44.24
2020-02-28 08:20 43.29 35.39 17.7 39.65 43.29 6.0 7.43 5.97 347.3 332.9 0.0 0.075 44.24
2020-02-28 08:25 43.47 36.31 18.46 39.97 43.47 5.82 6.89 5.66 329.8 332.2 0.0 0.094 44.24
2020-02-28 08:30 44.08 35.97 18.79 42.29 44.08 3.67 6.53 4.97 346.3 331.0 0.0 0.101 44.24
2020-02-28 08:35 44.87 34.37 18.43 42.61 44.87 4.38 5.64 4.59 340.6 330.6 0.0 0.104 44.24
2020-02-28 08:40 46.09 33.52 18.93 44.31 46.09 4.03 6.53 3.71 0.5 331.8 0.0 0.125 44.26
2020-02-28 08:45 46.71 31.27 17.85 43.93 46.71 5.64 5.64 4.23 333.8 345.5 0.0 0.112 44.28
2020-02-28 08:50 47.43 32.12 19.1 44.78 47.43 5.64 6.89 5.17 325.7 328.1 0.0 0.13 44.28
2020-02-28 08:55 47.8 30.73 18.4 45.23 47.8 5.64 6.71 5.08 323.7 325.4 0.0 0.118 44.28
2020-02-28 09:00 48.22 29.13 17.52 46.27 48.22 4.74 6.35 4.88 312.1 331.0 0.0 0.135 44.29
2020-02-28 09:05 48.52 29.3 17.92 46.74 48.52 4.56 6.0 4.23 325.8 325.3 0.0 0.143 44.29
2020-02-28 09:10 49.57 28.55 18.22 48.46 49.57 3.85 5.82 3.71 312.4 326.7 0.0 0.142 44.31
2020-02-28 09:15 49.98 27.49 17.7 48.01 49.98 5.28 5.64 4.18 321.9 328.2 0.0 0.149 44.33
2020-02-28 09:20 50.65 28.17 18.85 50.65 50.65 1.88 6.17 3.89 336.6 333.4 0.0 0.143 44.37
2020-02-28 09:25 50.52 27.05 17.79 50.52 50.52 3.13 6.35 4.56 311.5 321.1 0.0 0.142 44.38
2020-02-28 09:30 50.77 27.22 18.16 50.77 50.77 3.67 5.64 4.0 293.3 332.3 0.0 0.142 44.42
2020-02-28 09:35 51.13 28.1 19.21 51.13 51.13 2.59 4.56 3.58 337.3 329.0 0.0 0.135 44.42
2020-02-28 09:40 51.44 26.3 17.93 51.44 51.44 4.92 7.07 4.56 309.9 330.4 0.0 0.161 44.46
2020-02-28 09:45 52.23 26.03 18.37 52.23 52.23 4.74 5.82 3.71 8.0 313.1 0.0 0.169 44.49
2020-02-28 09:50 52.54 24.4 17.13 52.54 52.54 4.21 6.17 2.82 332.1 347.2 0.0 0.172 44.53
2020-02-28 09:55 53.64 22.39 16.07 53.64 53.64 1.7 5.1 2.44 236.3 2.2 0.0 0.193 44.56
2020-02-28 10:00 53.4 24.02 17.5 53.4 53.4 0.81 5.82 2.71 38.6 22.1 0.0 0.153 44.62
2020-02-28 10:05 53.76 21.81 15.57 53.76 53.76 1.7 5.1 2.51 270.1 314.9 0.0 0.17 44.65
2020-02-28 10:10 54.79 22.73 17.39 54.79 54.79 4.21 4.21 2.15 310.2 300.0 0.0 0.19 44.71
2020-02-28 10:15 55.22 21.34 16.3 55.22 55.22 0.0 3.67 2.3 74.7 283.4 0.0 0.188 44.74
2020-02-28 10:20 56.68 20.04 16.06 56.68 56.68 4.92 4.92 2.06 332.7 341.1 0.0 0.232 44.8
2020-02-28 10:25 56.73 21.23 17.44 56.73 56.73 3.13 4.92 2.64 31.6 359.5 0.0 0.244 44.83
2020-02-28 10:30 56.61 21.4 17.52 56.61 56.61 2.95 4.92 3.31 233.6 305.2 0.0 0.25 44.91
2020-02-28 10:35 57.83 20.21 17.22 57.83 57.83 3.31 3.85 2.64 306.8 303.4 0.0 0.266 44.92
2020-02-28 10:40 58.14 20.72 18.05 58.14 58.14 3.31 4.38 2.86 22.2 317.3 0.0 0.228 44.98
2020-02-28 10:45 58.5 17.09 13.91 58.5 58.5 2.95 3.49 2.46 280.1 351.5 0.0 0.192 45.05
2020-02-28 10:50 58.62 19.8 17.4 58.62 58.62 2.59 3.31 1.63 190.2 251.5 0.0 0.14 45.1
2020-02-28 10:55 58.32 20.55 18.01 58.32 58.32 4.21 4.21 2.24 9.3 153.6 0.0 0.127 45.14
2020-02-28 11:00 57.96 19.6 16.61 57.96 57.96 1.7 5.28 3.53 332.7 334.8 0.0 0.141 45.21
2020-02-28 11:05 57.45 23.0 19.92 57.45 57.45 2.42 5.28 3.24 34.6 5.7 0.0 0.14 45.28
2020-02-28 11:10 58.01 19.97 17.09 58.01 58.01 2.42 4.38 3.11 108.0 52.5 0.0 0.162 45.34
2020-02-28 11:15 57.76 20.35 17.32 57.76 57.76 4.03 6.0 3.67 49.2 14.9 0.0 0.127 45.41
2020-02-28 11:20 57.7 21.37 18.41 57.7 57.7 5.82 6.0 4.09 5.0 38.2 0.0 0.137 45.48
2020-02-28 11:25 57.58 19.33 15.98 57.58 57.58 2.59 6.17 4.18 16.5 1.5 0.0 0.118 45.55
2020-02-28 11:30 57.65 22.05 19.1 57.65 57.65 2.24 4.74 2.44 2.0 16.7 0.0 0.105 45.63
2020-02-28 11:35 57.7 19.87 16.72 57.7 57.7 4.56 5.64 4.52 4.4 351.5 0.0 0.098 45.7
2020-02-28 11:40 57.65 19.57 16.32 57.65 57.65 1.7 4.92 3.24 55.3 347.9 0.0 0.103 45.75
2020-02-28 11:45 58.62 19.5 17.05 58.62 58.62 1.52 2.59 1.19 226.7 302.1 0.0 0.131 45.81
2020-02-28 11:50 60.1 18.78 17.4 60.1 60.1 1.52 2.06 1.01 243.5 276.0 0.0 0.152 45.88
2020-02-28 11:55 60.4 17.94 16.59 60.4 60.4 1.7 2.95 1.83 152.6 81.1 0.0 0.151 45.91
2020-02-28 12:00 60.76 17.66 16.52 60.76 60.76 2.77 3.31 1.59 138.5 158.7 0.0 0.134 45.99

Data is courtesy of the NM Climate Center. DO NOT USE IN LEGAL PROCEEDINGS.